sensor_id;sensor_type;location;lat;lon;timestamp;pressure;altitude;pressure_sealevel;temperature;humidity
55191;BME280;41070;50.360;18.742;2023-08-07T20:50:38;98194.30;;;15.21;97.78
55191;BME280;41070;50.360;18.742;2023-08-07T20:53:05;98201.55;;;15.23;97.48
55191;BME280;41070;50.360;18.742;2023-08-07T20:55:33;98201.23;;;15.15;97.56
55191;BME280;41070;50.360;18.742;2023-08-07T20:58:01;98201.59;;;15.09;97.57
55191;BME280;41070;50.360;18.742;2023-08-07T21:00:29;98204.20;;;15.03;97.86
55191;BME280;41070;50.360;18.742;2023-08-07T21:02:56;98203.95;;;14.98;97.69
55191;BME280;41070;50.360;18.742;2023-08-07T21:05:24;98203.79;;;14.92;97.84
55191;BME280;41070;50.360;18.742;2023-08-07T21:07:51;98208.77;;;14.89;97.97
55191;BME280;41070;50.360;18.742;2023-08-07T21:10:19;98210.15;;;14.85;98.02
55191;BME280;41070;50.360;18.742;2023-08-07T21:12:47;98212.66;;;14.81;97.94
55191;BME280;41070;50.360;18.742;2023-08-07T21:15:14;98219.43;;;14.77;98.30
55191;BME280;41070;50.360;18.742;2023-08-07T21:17:42;98220.64;;;14.75;98.14
55191;BME280;41070;50.360;18.742;2023-08-07T21:20:10;98220.79;;;14.71;98.21
55191;BME280;41070;50.360;18.742;2023-08-07T21:22:37;98221.79;;;14.70;98.14
55191;BME280;41070;50.360;18.742;2023-08-07T21:25:06;98222.30;;;14.68;98.24
55191;BME280;41070;50.360;18.742;2023-08-07T21:27:33;98223.15;;;14.66;98.42
55191;BME280;41070;50.360;18.742;2023-08-07T21:30:02;98222.92;;;14.66;98.33
55191;BME280;41070;50.360;18.742;2023-08-07T21:32:30;98223.07;;;14.65;98.29
55191;BME280;41070;50.360;18.742;2023-08-07T21:34:57;98222.91;;;14.64;98.29
55191;BME280;41070;50.360;18.742;2023-08-07T21:37:31;98225.75;;;14.62;98.22
55191;BME280;41070;50.360;18.742;2023-08-07T21:40:00;98229.35;;;14.59;98.14
55191;BME280;41070;50.360;18.742;2023-08-07T21:42:27;98234.17;;;14.57;98.22
55191;BME280;41070;50.360;18.742;2023-08-07T21:44:55;98238.00;;;14.55;98.12
55191;BME280;41070;50.360;18.742;2023-08-07T21:47:23;98238.45;;;14.54;98.03
55191;BME280;41070;50.360;18.742;2023-08-07T21:49:50;98241.59;;;14.54;97.90
55191;BME280;41070;50.360;18.742;2023-08-07T21:52:18;98239.74;;;14.52;97.87
55191;BME280;41070;50.360;18.742;2023-08-07T21:54:46;98246.11;;;14.51;97.72
55191;BME280;41070;50.360;18.742;2023-08-07T21:57:14;98248.02;;;14.48;97.54
55191;BME280;41070;50.360;18.742;2023-08-07T21:59:41;98248.25;;;14.46;97.72
55191;BME280;41070;50.360;18.742;2023-08-07T22:02:09;98255.56;;;14.47;97.70
55191;BME280;41070;50.360;18.742;2023-08-07T22:04:36;98254.33;;;14.47;97.65
55191;BME280;41070;50.360;18.742;2023-08-07T22:07:04;98259.40;;;14.47;97.88
55191;BME280;41070;50.360;18.742;2023-08-07T22:09:32;98262.71;;;14.47;97.58
55191;BME280;41070;50.360;18.742;2023-08-07T22:12:00;98265.33;;;14.46;97.59
55191;BME280;41070;50.360;18.742;2023-08-07T22:14:27;98270.23;;;14.44;97.55
55191;BME280;41070;50.360;18.742;2023-08-07T22:16:55;98270.13;;;14.43;97.65
55191;BME280;41070;50.360;18.742;2023-08-07T22:19:23;98272.21;;;14.42;97.63
55191;BME280;41070;50.360;18.742;2023-08-07T22:21:50;98273.83;;;14.42;97.42
55191;BME280;41070;50.360;18.742;2023-08-07T22:24:18;98277.90;;;14.41;97.62
55191;BME280;41070;50.360;18.742;2023-08-07T22:26:45;98280.36;;;14.42;97.58
55191;BME280;41070;50.360;18.742;2023-08-07T22:29:13;98281.38;;;14.42;97.58
55191;BME280;41070;50.360;18.742;2023-08-07T22:31:41;98282.29;;;14.42;97.45
55191;BME280;41070;50.360;18.742;2023-08-07T22:34:08;98282.14;;;14.42;97.60
55191;BME280;41070;50.360;18.742;2023-08-07T22:36:36;98283.96;;;14.41;97.46
55191;BME280;41070;50.360;18.742;2023-08-07T22:39:03;98288.13;;;14.40;97.41
55191;BME280;41070;50.360;18.742;2023-08-07T22:41:31;98291.58;;;14.38;97.55
55191;BME280;41070;50.360;18.742;2023-08-07T22:44:00;98293.58;;;14.39;97.53
55191;BME280;41070;50.360;18.742;2023-08-07T22:46:27;98292.95;;;14.38;97.61
55191;BME280;41070;50.360;18.742;2023-08-07T22:48:55;98302.17;;;14.37;97.72
55191;BME280;41070;50.360;18.742;2023-08-07T22:51:23;98303.79;;;14.37;97.67
55191;BME280;41070;50.360;18.742;2023-08-07T22:53:50;98302.77;;;14.35;97.56
55191;BME280;41070;50.360;18.742;2023-08-07T22:56:18;98309.84;;;14.34;97.37
55191;BME280;41070;50.360;18.742;2023-08-07T22:58:48;98309.68;;;14.32;97.47
55191;BME280;41070;50.360;18.742;2023-08-07T23:01:16;98314.42;;;14.30;97.52
55191;BME280;41070;50.360;18.742;2023-08-07T23:03:43;98312.65;;;14.29;97.38
55191;BME280;41070;50.360;18.742;2023-08-07T23:06:11;98314.41;;;14.28;97.52
55191;BME280;41070;50.360;18.742;2023-08-07T23:08:39;98319.10;;;14.28;97.48
55191;BME280;41070;50.360;18.742;2023-08-07T23:11:06;98315.17;;;14.26;97.30
55191;BME280;41070;50.360;18.742;2023-08-07T23:13:34;98312.30;;;14.24;97.29
55191;BME280;41070;50.360;18.742;2023-08-07T23:16:02;98316.98;;;14.23;97.18
55191;BME280;41070;50.360;18.742;2023-08-07T23:18:31;98318.12;;;14.20;96.98
55191;BME280;41070;50.360;18.742;2023-08-07T23:20:58;98321.94;;;14.17;96.95
55191;BME280;41070;50.360;18.742;2023-08-07T23:23:26;98325.30;;;14.14;97.16
55191;BME280;41070;50.360;18.742;2023-08-07T23:25:53;98321.06;;;14.13;97.28
55191;BME280;41070;50.360;18.742;2023-08-07T23:28:21;98318.98;;;14.13;97.23
55191;BME280;41070;50.360;18.742;2023-08-07T23:30:48;98325.82;;;14.13;97.28
55191;BME280;41070;50.360;18.742;2023-08-07T23:33:16;98327.80;;;14.11;97.25
55191;BME280;41070;50.360;18.742;2023-08-07T23:35:44;98327.95;;;14.10;97.32
55191;BME280;41070;50.360;18.742;2023-08-07T23:38:11;98330.34;;;14.10;97.17
55191;BME280;41070;50.360;18.742;2023-08-07T23:40:39;98333.31;;;14.08;97.25
55191;BME280;41070;50.360;18.742;2023-08-07T23:43:08;98334.31;;;14.07;97.26
55191;BME280;41070;50.360;18.742;2023-08-07T23:45:36;98337.98;;;14.06;97.05
55191;BME280;41070;50.360;18.742;2023-08-07T23:48:04;98337.44;;;14.05;97.22
55191;BME280;41070;50.360;18.742;2023-08-07T23:50:32;98337.20;;;14.04;97.27
55191;BME280;41070;50.360;18.742;2023-08-07T23:52:59;98342.05;;;14.05;97.26
55191;BME280;41070;50.360;18.742;2023-08-07T23:55:27;98347.10;;;14.04;97.27
55191;BME280;41070;50.360;18.742;2023-08-07T23:57:54;98348.80;;;14.05;97.27
